Time;durP1;ratioP1;P1;durP2;ratioP2;P2;SDS_P1;SDS_P2;PMS_P1;PMS_P2;Temp;Humidity;BMP_temperature;BMP_pressure;BME280_temperature;BME280_humidity;BME280_pressure;Samples;Min_cycle;Max_cycle;Signal;HPM_P1;HPM_P2
2022/03/13 00:02:15;;;;;;;12.73;7.53;;;;;;;;;;10350712;28;20026;-58
2022/03/13 00:07:19;;;;;;;9.02;6.80;;;;;;;;;;10357474;28;20109;-58
2022/03/13 00:12:28;;;;;;;10.93;6.60;;;;;;;;;;10352569;28;20421;-60
2022/03/13 00:17:29;;;;;;;11.85;7.50;;;;;;;;;;10349385;28;20247;-59
2022/03/13 00:22:31;;;;;;;9.40;7.15;;;;;;;;;;10354950;28;20031;-60
2022/03/13 00:27:34;;;;;;;11.75;7.20;;;;;;;;;;10358889;28;20034;-60
2022/03/13 00:32:34;;;;;;;10.57;6.88;;;;;;;;;;10361618;28;20034;-59
2022/03/13 00:37:34;;;;;;;8.90;6.53;;;;;;;;;;10360077;28;20030;-59
2022/03/13 00:42:35;;;;;;;11.73;6.63;;;;;;;;;;10352909;28;20026;-59
2022/03/13 00:47:35;;;;;;;9.00;6.60;;;;;;;;;;10346607;28;20564;-60
2022/03/13 00:52:36;;;;;;;9.27;6.80;;;;;;;;;;10357438;28;20458;-59
2022/03/13 00:57:36;;;;;;;8.95;6.95;;;;;;;;;;10353661;28;20417;-60
2022/03/13 01:02:38;;;;;;;10.15;6.15;;;;;;;;;;10353468;28;20023;-59
2022/03/13 01:07:38;;;;;;;9.02;6.28;;;;;;;;;;10359481;28;20033;-60
2022/03/13 01:12:39;;;;;;;11.20;6.72;;;;;;;;;;10351705;28;20045;-59
2022/03/13 01:17:39;;;;;;;13.02;7.38;;;;;;;;;;10354755;28;20494;-59
2022/03/13 01:22:40;;;;;;;8.15;6.55;;;;;;;;;;10358004;28;20498;-59
2022/03/13 01:27:40;;;;;;;11.07;6.57;;;;;;;;;;10361284;28;20035;-59
2022/03/13 01:32:42;;;;;;;10.52;6.53;;;;;;;;;;10350980;28;20467;-59
2022/03/13 01:37:42;;;;;;;9.30;6.60;;;;;;;;;;10357202;28;20077;-59
2022/03/13 01:42:44;;;;;;;9.50;7.60;;;;;;;;;;10354100;28;20493;-59
2022/03/13 01:47:46;;;;;;;10.15;6.47;;;;;;;;;;10357245;28;20475;-59
2022/03/13 01:52:47;;;;;;;10.88;7.30;;;;;;;;;;10355002;28;20033;-59
2022/03/13 01:57:48;;;;;;;9.65;7.00;;;;;;;;;;10351818;28;20035;-60
2022/03/13 02:02:48;;;;;;;10.35;6.47;;;;;;;;;;10349171;28;20388;-59
2022/03/13 02:07:49;;;;;;;8.85;6.70;;;;;;;;;;10360771;28;20497;-59
2022/03/13 02:12:49;;;;;;;9.75;7.28;;;;;;;;;;10354747;28;20496;-60
2022/03/13 02:17:50;;;;;;;11.30;6.95;;;;;;;;;;10356689;28;20045;-59
2022/03/13 02:22:52;;;;;;;12.63;6.93;;;;;;;;;;10360014;28;20478;-60
2022/03/13 02:27:53;;;;;;;10.40;7.28;;;;;;;;;;10369006;28;20025;-59
2022/03/13 02:32:53;;;;;;;10.80;6.73;;;;;;;;;;10356839;28;20508;-59
2022/03/13 02:37:54;;;;;;;10.98;7.10;;;;;;;;;;10371135;28;20468;-59
2022/03/13 02:42:58;;;;;;;10.02;6.47;;;;;;;;;;10357955;28;20026;-59
2022/03/13 02:47:59;;;;;;;10.05;6.95;;;;;;;;;;10372008;28;20117;-59
2022/03/13 02:53:00;;;;;;;8.02;6.47;;;;;;;;;;10355351;28;20034;-60
2022/03/13 02:58:00;;;;;;;9.68;6.78;;;;;;;;;;10360940;28;20050;-59
2022/03/13 03:03:01;;;;;;;9.37;6.83;;;;;;;;;;10333628;28;20036;-59
2022/03/13 03:08:01;;;;;;;10.30;7.25;;;;;;;;;;10360950;28;20061;-59
2022/03/13 03:13:02;;;;;;;13.00;7.20;;;;;;;;;;10353994;28;20030;-60
2022/03/13 03:18:04;;;;;;;9.63;6.75;;;;;;;;;;10354779;28;20050;-60
2022/03/13 03:23:05;;;;;;;9.27;6.82;;;;;;;;;;10351532;28;20038;-59
2022/03/13 03:28:05;;;;;;;8.48;6.57;;;;;;;;;;10354849;28;20030;-60
2022/03/13 03:33:06;;;;;;;9.57;6.60;;;;;;;;;;10352562;28;20038;-60
2022/03/13 03:38:07;;;;;;;8.10;6.47;;;;;;;;;;10353416;28;20480;-60
2022/03/13 03:43:07;;;;;;;8.38;6.40;;;;;;;;;;10354702;28;20029;-60
2022/03/13 03:48:07;;;;;;;10.95;6.57;;;;;;;;;;10355240;28;20038;-59
2022/03/13 03:53:08;;;;;;;8.50;6.70;;;;;;;;;;10357364;28;20030;-60
2022/03/13 03:58:08;;;;;;;7.93;6.32;;;;;;;;;;10362422;28;20471;-59
2022/03/13 04:03:09;;;;;;;9.50;6.05;;;;;;;;;;10350307;28;20030;-60
2022/03/13 04:08:09;;;;;;;11.37;6.50;;;;;;;;;;10356596;28;20117;-60
2022/03/13 04:13:09;;;;;;;10.57;7.68;;;;;;;;;;10342523;28;20472;-60
2022/03/13 04:18:10;;;;;;;8.05;6.22;;;;;;;;;;10351481;28;20042;-59
2022/03/13 04:23:11;;;;;;;8.35;6.80;;;;;;;;;;10353487;28;20478;-60
2022/03/13 04:28:11;;;;;;;8.40;6.32;;;;;;;;;;10350735;28;20026;-60
2022/03/13 04:33:16;;;;;;;10.23;6.72;;;;;;;;;;10359270;28;20385;-59
2022/03/13 04:38:16;;;;;;;7.93;6.05;;;;;;;;;;10353788;28;20018;-59
2022/03/13 04:43:17;;;;;;;9.43;6.75;;;;;;;;;;10356168;28;20040;-59
2022/03/13 04:48:18;;;;;;;10.17;6.80;;;;;;;;;;10356684;28;20034;-60
2022/03/13 04:53:18;;;;;;;8.00;5.97;;;;;;;;;;10350786;28;20830;-60
2022/03/13 04:58:19;;;;;;;9.40;6.73;;;;;;;;;;10355243;28;20028;-59
2022/03/13 05:03:19;;;;;;;8.30;5.88;;;;;;;;;;10359296;28;20518;-59
2022/03/13 05:08:20;;;;;;;10.05;6.28;;;;;;;;;;10368903;28;20033;-59
2022/03/13 05:13:22;;;;;;;9.10;6.60;;;;;;;;;;10343198;28;20048;-59
2022/03/13 05:18:22;;;;;;;9.50;6.57;;;;;;;;;;10345384;28;20053;-59
2022/03/13 05:23:23;;;;;;;9.23;6.70;;;;;;;;;;10343323;28;20038;-59
2022/03/13 05:28:24;;;;;;;7.32;5.95;;;;;;;;;;10346548;28;20275;-59
2022/03/13 05:33:24;;;;;;;9.97;6.93;;;;;;;;;;10344437;28;20069;-60
2022/03/13 05:38:24;;;;;;;8.10;6.03;;;;;;;;;;10355658;28;20471;-60
2022/03/13 05:43:26;;;;;;;8.07;6.20;;;;;;;;;;10351978;28;20034;-59
2022/03/13 05:48:28;;;;;;;10.05;6.38;;;;;;;;;;10358934;28;20027;-59
2022/03/13 05:53:28;;;;;;;9.32;6.03;;;;;;;;;;10356622;28;20046;-60
2022/03/13 05:58:29;;;;;;;8.52;6.20;;;;;;;;;;10352033;28;20382;-60
2022/03/13 06:03:30;;;;;;;8.85;6.07;;;;;;;;;;10347941;28;20026;-60
2022/03/13 06:08:31;;;;;;;9.30;6.70;;;;;;;;;;10349625;28;20037;-60
2022/03/13 06:13:31;;;;;;;8.30;5.57;;;;;;;;;;10352726;28;20483;-60
2022/03/13 06:18:32;;;;;;;8.00;5.93;;;;;;;;;;10338542;28;20030;-60
2022/03/13 06:23:33;;;;;;;8.88;6.57;;;;;;;;;;10359644;28;20044;-60
2022/03/13 06:28:34;;;;;;;6.82;6.03;;;;;;;;;;10355349;28;20121;-60
2022/03/13 06:33:34;;;;;;;6.18;5.47;;;;;;;;;;10361513;28;20037;-61
2022/03/13 06:38:35;;;;;;;7.38;5.32;;;;;;;;;;10365254;28;20476;-60
2022/03/13 06:43:36;;;;;;;8.07;6.13;;;;;;;;;;10366220;28;20449;-60
2022/03/13 06:48:37;;;;;;;8.18;5.57;;;;;;;;;;10365463;28;20424;-59
2022/03/13 06:53:37;;;;;;;8.50;5.50;;;;;;;;;;10365731;28;20222;-60
2022/03/13 06:58:39;;;;;;;7.37;5.60;;;;;;;;;;10348821;28;20653;-60
2022/03/13 07:03:40;;;;;;;7.60;5.63;;;;;;;;;;10343340;28;20558;-61
2022/03/13 07:08:40;;;;;;;7.90;5.65;;;;;;;;;;10349400;28;20052;-60
2022/03/13 07:13:44;;;;;;;8.23;5.40;;;;;;;;;;10346295;28;20185;-60
2022/03/13 07:18:45;;;;;;;7.63;5.13;;;;;;;;;;10340568;28;20468;-60
2022/03/13 07:23:45;;;;;;;7.60;5.85;;;;;;;;;;10344908;28;20473;-59
2022/03/13 07:28:45;;;;;;;7.77;5.33;;;;;;;;;;10356916;28;20488;-60
2022/03/13 07:33:46;;;;;;;10.10;5.70;;;;;;;;;;10342624;28;20472;-59
2022/03/13 07:38:46;;;;;;;8.23;6.03;;;;;;;;;;10350876;28;20475;-59
2022/03/13 07:43:47;;;;;;;6.70;5.40;;;;;;;;;;10366133;28;20046;-60
2022/03/13 07:48:47;;;;;;;11.57;5.68;;;;;;;;;;10351736;28;20527;-70
2022/03/13 07:53:48;;;;;;;17.52;6.85;;;;;;;;;;10363583;28;20027;-70
2022/03/13 07:58:48;;;;;;;11.10;7.50;;;;;;;;;;10362479;28;20022;-60
2022/03/13 08:03:51;;;;;;;16.27;7.87;;;;;;;;;;10364823;28;20022;-60
2022/03/13 08:08:51;;;;;;;12.18;7.57;;;;;;;;;;10359618;28;20502;-60
2022/03/13 08:13:52;;;;;;;12.38;8.00;;;;;;;;;;10346307;28;20104;-60
2022/03/13 08:18:54;;;;;;;10.50;6.20;;;;;;;;;;10360759;28;20296;-60
2022/03/13 08:23:55;;;;;;;8.98;7.13;;;;;;;;;;10342215;28;20033;-60
2022/03/13 08:28:55;;;;;;;12.60;7.00;;;;;;;;;;10350664;28;20025;-60
2022/03/13 08:33:56;;;;;;;10.37;6.47;;;;;;;;;;10354032;28;20030;-59
2022/03/13 08:38:57;;;;;;;24.08;12.52;;;;;;;;;;10352162;28;20564;-65
2022/03/13 08:43:57;;;;;;;45.83;25.83;;;;;;;;;;10358142;28;20025;-61
2022/03/13 08:48:57;;;;;;;45.78;27.77;;;;;;;;;;10360553;28;20532;-59
2022/03/13 08:53:58;;;;;;;55.30;31.23;;;;;;;;;;10353063;28;20037;-59
2022/03/13 08:58:58;;;;;;;61.63;34.50;;;;;;;;;;10349870;28;20567;-59
2022/03/13 09:03:59;;;;;;;63.33;35.83;;;;;;;;;;10359602;28;20028;-57
2022/03/13 09:08:59;;;;;;;50.73;29.70;;;;;;;;;;10346812;28;20361;-60
2022/03/13 09:14:00;;;;;;;58.63;34.70;;;;;;;;;;10351017;28;20448;-60
2022/03/13 09:19:00;;;;;;;59.97;34.95;;;;;;;;;;10343005;28;20173;-60
2022/03/13 09:24:01;;;;;;;59.77;36.87;;;;;;;;;;10356782;28;20440;-60
2022/03/13 09:29:02;;;;;;;66.85;39.22;;;;;;;;;;10339563;28;20952;-60
2022/03/13 09:34:03;;;;;;;73.78;41.80;;;;;;;;;;10356625;28;20030;-58
2022/03/13 09:39:05;;;;;;;72.25;39.63;;;;;;;;;;10351857;28;20091;-59
2022/03/13 09:44:07;;;;;;;74.28;43.83;;;;;;;;;;10358284;28;20029;-58
2022/03/13 09:49:07;;;;;;;69.53;42.22;;;;;;;;;;10351684;28;20029;-59
2022/03/13 09:54:08;;;;;;;56.07;33.60;;;;;;;;;;10353360;28;20473;-62
2022/03/13 09:59:08;;;;;;;61.15;35.60;;;;;;;;;;10355491;28;20040;-60
2022/03/13 10:04:09;;;;;;;56.33;34.40;;;;;;;;;;10364460;28;20041;-60
2022/03/13 10:09:26;;;;;;;60.63;34.95;;;;;;;;;;10357672;28;20478;-60
2022/03/13 10:14:26;;;;;;;57.42;34.95;;;;;;;;;;10349446;28;20034;-59
2022/03/13 10:19:28;;;;;;;66.47;40.87;;;;;;;;;;10357590;28;20046;-58
2022/03/13 10:24:38;;;;;;;67.18;38.80;;;;;;;;;;10355258;28;20026;-57
2022/03/13 10:29:39;;;;;;;67.75;41.40;;;;;;;;;;10355380;28;20036;-59
2022/03/13 10:34:40;;;;;;;70.65;40.78;;;;;;;;;;10352712;28;20488;-59
2022/03/13 10:39:40;;;;;;;71.22;42.92;;;;;;;;;;10337391;28;20108;-56
2022/03/13 10:44:52;;;;;;;69.40;41.87;;;;;;;;;;10353657;28;20517;-54
2022/03/13 10:49:53;;;;;;;74.28;44.47;;;;;;;;;;10360839;28;20487;-59
2022/03/13 10:54:55;;;;;;;79.18;45.00;;;;;;;;;;10361917;28;20504;-59
2022/03/13 11:00:15;;;;;;;80.07;47.13;;;;;;;;;;10340610;28;20022;-60
2022/03/13 11:05:16;;;;;;;82.53;47.67;;;;;;;;;;10352514;28;20030;-59
2022/03/13 11:10:17;;;;;;;79.70;47.42;;;;;;;;;;10343831;28;20041;-59
2022/03/13 11:15:18;;;;;;;75.25;46.67;;;;;;;;;;10356060;28;20057;-62
2022/03/13 11:20:19;;;;;;;93.50;51.10;;;;;;;;;;10413782;22;20057;-61
2022/03/13 11:25:23;;;;;;;86.05;50.45;;;;;;;;;;10416048;28;20100;-63
2022/03/13 11:30:36;;;;;;;87.53;50.70;;;;;;;;;;10422987;28;20025;-64
2022/03/13 11:35:37;;;;;;;84.07;49.47;;;;;;;;;;10422886;28;20030;-66
2022/03/13 11:40:40;;;;;;;86.25;49.67;;;;;;;;;;10422921;28;20032;-61
2022/03/13 11:45:48;;;;;;;91.18;54.85;;;;;;;;;;10422569;28;20461;-59
2022/03/13 11:50:54;;;;;;;92.53;54.83;;;;;;;;;;10422810;28;20030;-60
2022/03/13 11:55:58;;;;;;;89.63;54.95;;;;;;;;;;10421981;28;20115;-59
2022/03/13 12:01:07;;;;;;;88.50;54.28;;;;;;;;;;10421784;28;20041;-61
2022/03/13 12:06:08;;;;;;;93.35;56.65;;;;;;;;;;10421676;28;20025;-60
2022/03/13 12:11:40;;;;;;;97.28;58.17;;;;;;;;;;10422462;28;20034;-63
2022/03/13 12:16:43;;;;;;;110.25;70.10;;;;;;;;;;10405607;28;20131;-60
2022/03/13 12:21:45;;;;;;;110.45;64.95;;;;;;;;;;10418881;28;20505;-63
2022/03/13 12:26:47;;;;;;;86.97;54.65;;;;;;;;;;10405204;28;20030;-62
2022/03/13 12:31:49;;;;;;;95.50;55.72;;;;;;;;;;10406122;28;20486;-62
2022/03/13 12:36:49;;;;;;;91.88;56.08;;;;;;;;;;10406084;28;20472;-62
2022/03/13 12:41:57;;;;;;;90.07;54.67;;;;;;;;;;10408847;28;20029;-62
2022/03/13 12:46:58;;;;;;;93.25;53.20;;;;;;;;;;10383930;28;20123;-62
2022/03/13 12:51:58;;;;;;;83.13;51.30;;;;;;;;;;10384805;28;20128;-62
2022/03/13 12:57:00;;;;;;;85.88;52.83;;;;;;;;;;10402279;28;20499;-60
2022/03/13 13:02:05;;;;;;;83.05;51.65;;;;;;;;;;10396861;28;20022;-64
2022/03/13 13:07:07;;;;;;;89.10;53.25;;;;;;;;;;10397589;28;20161;-61
2022/03/13 13:12:09;;;;;;;80.65;48.90;;;;;;;;;;10402419;28;20415;-61
2022/03/13 13:17:10;;;;;;;82.47;50.30;;;;;;;;;;10398537;28;20030;-61
2022/03/13 13:22:12;;;;;;;83.07;49.28;;;;;;;;;;10393362;28;20053;-61
2022/03/13 13:27:54;;;;;;;78.90;48.63;;;;;;;;;;10383620;28;20048;-60
2022/03/13 13:32:56;;;;;;;81.70;49.63;;;;;;;;;;10390452;28;20049;-61
2022/03/13 13:38:04;;;;;;;77.18;50.45;;;;;;;;;;10399958;28;20480;-61
2022/03/13 13:43:07;;;;;;;;;;;;;;;;;;10407230;28;20038;-61
2022/03/13 13:48:31;;;;;;;78.47;45.47;;;;;;;;;;10388848;28;19932;-61
2022/03/13 13:53:45;;;;;;;72.97;45.25;;;;;;;;;;10389173;28;20227;-61
2022/03/13 13:58:45;;;;;;;71.47;44.00;;;;;;;;;;10398353;28;20028;-62
2022/03/13 14:03:46;;;;;;;73.27;43.23;;;;;;;;;;10392713;28;20032;-61
2022/03/13 14:08:48;;;;;;;63.78;42.42;;;;;;;;;;10398912;28;20550;-60
2022/03/13 14:13:48;;;;;;;72.97;42.28;;;;;;;;;;10403393;28;20025;-60
2022/03/13 14:18:49;;;;;;;62.58;40.85;;;;;;;;;;10397686;28;20042;-62
2022/03/13 14:23:49;;;;;;;64.78;41.63;;;;;;;;;;10390946;28;20121;-60
2022/03/13 14:28:50;;;;;;;65.40;41.55;;;;;;;;;;10389207;28;20044;-60
2022/03/13 14:33:50;;;;;;;59.87;39.63;;;;;;;;;;10402548;28;20483;-60
2022/03/13 14:38:51;;;;;;;64.75;40.03;;;;;;;;;;10395930;28;20451;-60
2022/03/13 14:43:51;;;;;;;61.15;38.17;;;;;;;;;;10400748;28;20657;-60
2022/03/13 14:48:53;;;;;;;61.97;38.30;;;;;;;;;;10392029;28;20079;-60
2022/03/13 14:53:53;;;;;;;58.67;37.20;;;;;;;;;;10394099;28;20060;-60
2022/03/13 14:58:54;;;;;;;51.58;33.45;;;;;;;;;;10383425;28;20109;-62
2022/03/13 15:03:55;;;;;;;48.65;31.27;;;;;;;;;;10401110;28;20377;-60
2022/03/13 15:08:55;;;;;;;49.90;30.83;;;;;;;;;;10394884;28;20025;-62
2022/03/13 15:13:55;;;;;;;45.38;27.42;;;;;;;;;;10404793;28;20029;-62
2022/03/13 15:18:56;;;;;;;42.72;27.75;;;;;;;;;;10397919;28;20508;-63
2022/03/13 15:23:56;;;;;;;44.43;25.93;;;;;;;;;;10403638;28;20084;-61
2022/03/13 15:28:57;;;;;;;36.60;23.48;;;;;;;;;;10398791;28;20458;-63
2022/03/13 15:33:57;;;;;;;36.45;22.48;;;;;;;;;;10398039;28;20385;-62
2022/03/13 15:38:59;;;;;;;34.50;21.70;;;;;;;;;;10389840;28;20030;-60
2022/03/13 15:43:59;;;;;;;36.30;21.67;;;;;;;;;;10404665;28;20029;-60
2022/03/13 15:49:00;;;;;;;30.05;19.98;;;;;;;;;;10401657;28;20029;-61
2022/03/13 15:54:00;;;;;;;31.50;19.92;;;;;;;;;;10397736;28;20083;-60
2022/03/13 15:59:02;;;;;;;29.55;18.92;;;;;;;;;;10385543;28;20029;-60
2022/03/13 16:04:03;;;;;;;28.85;18.85;;;;;;;;;;10388757;28;20034;-60
2022/03/13 16:09:03;;;;;;;23.88;16.98;;;;;;;;;;10397842;28;20421;-61
2022/03/13 16:14:04;;;;;;;25.95;16.50;;;;;;;;;;10405691;28;20117;-62
2022/03/13 16:19:06;;;;;;;23.45;15.52;;;;;;;;;;10407508;28;20427;-62
2022/03/13 16:24:07;;;;;;;25.30;16.33;;;;;;;;;;10407600;28;20029;-62
2022/03/13 16:29:07;;;;;;;22.58;15.55;;;;;;;;;;10406812;28;20034;-61
2022/03/13 16:34:08;;;;;;;28.23;16.08;;;;;;;;;;10405619;28;20029;-61
2022/03/13 16:39:08;;;;;;;20.50;15.03;;;;;;;;;;10404241;28;20041;-62
2022/03/13 16:44:11;;;;;;;27.57;14.57;;;;;;;;;;10402915;28;20598;-61
2022/03/13 16:49:11;;;;;;;23.13;14.70;;;;;;;;;;10404217;28;20045;-62
2022/03/13 16:54:11;;;;;;;22.17;14.77;;;;;;;;;;10401008;28;20022;-60
2022/03/13 16:59:13;;;;;;;22.03;13.53;;;;;;;;;;10400396;28;20822;-61
2022/03/13 17:04:13;;;;;;;22.40;12.95;;;;;;;;;;10390630;28;20040;-62
2022/03/13 17:09:15;;;;;;;17.30;12.73;;;;;;;;;;10393794;28;20056;-62
2022/03/13 17:14:17;;;;;;;20.10;12.43;;;;;;;;;;10408155;28;20483;-62
2022/03/13 17:19:17;;;;;;;19.00;12.95;;;;;;;;;;10408892;28;20041;-63
2022/03/13 17:24:18;;;;;;;17.45;12.70;;;;;;;;;;10401961;28;20018;-63
2022/03/13 17:29:19;;;;;;;17.00;12.23;;;;;;;;;;10392185;28;20038;-61
2022/03/13 17:34:20;;;;;;;18.25;12.60;;;;;;;;;;10401970;28;20354;-61
2022/03/13 17:39:21;;;;;;;19.38;12.18;;;;;;;;;;10406392;28;20037;-61
2022/03/13 17:44:21;;;;;;;22.70;12.77;;;;;;;;;;10406752;28;20029;-61
2022/03/13 17:49:21;;;;;;;19.98;12.05;;;;;;;;;;10404665;28;20021;-61
2022/03/13 17:54:23;;;;;;;20.00;11.63;;;;;;;;;;10399237;28;20414;-62
2022/03/13 17:59:24;;;;;;;17.88;11.52;;;;;;;;;;10401560;28;20426;-60
2022/03/13 18:04:24;;;;;;;15.93;11.60;;;;;;;;;;10397419;28;20034;-60
2022/03/13 18:09:26;;;;;;;20.37;11.90;;;;;;;;;;10391727;28;20477;-60
2022/03/13 18:14:26;;;;;;;17.75;11.95;;;;;;;;;;10388728;28;20395;-60
2022/03/13 18:19:26;;;;;;;17.10;11.23;;;;;;;;;;10383316;28;20040;-60
2022/03/13 18:24:27;;;;;;;17.92;10.95;;;;;;;;;;10382898;28;20513;-62
2022/03/13 18:29:27;;;;;;;14.93;10.80;;;;;;;;;;10400138;28;20040;-61
2022/03/13 18:34:28;;;;;;;16.10;10.50;;;;;;;;;;10400678;28;20041;-60
2022/03/13 18:39:35;;;;;;;14.97;11.00;;;;;;;;;;10395941;28;20034;-60
2022/03/13 18:44:36;;;;;;;16.85;10.70;;;;;;;;;;10403468;28;20561;-60
2022/03/13 18:49:36;;;;;;;19.52;11.00;;;;;;;;;;10403739;28;20555;-61
2022/03/13 18:54:37;;;;;;;13.73;9.20;;;;;;;;;;10395801;28;20117;-62
2022/03/13 18:59:37;;;;;;;16.80;10.43;;;;;;;;;;10396991;28;20022;-62
2022/03/13 19:04:38;;;;;;;13.18;9.63;;;;;;;;;;10393015;28;21064;-63
2022/03/13 19:09:40;;;;;;;13.45;9.68;;;;;;;;;;10395345;28;20033;-63
2022/03/13 19:14:48;;;;;;;15.63;8.68;;;;;;;;;;10382238;28;20424;-63
2022/03/13 19:19:49;;;;;;;;;;;;;;;;;;10390077;28;20171;-63
2022/03/13 19:24:49;;;;;;;12.85;8.85;;;;;;;;;;10392929;28;20044;-62
2022/03/13 19:29:50;;;;;;;11.43;8.07;;;;;;;;;;10396793;28;20499;-63
2022/03/13 19:34:51;;;;;;;11.95;8.20;;;;;;;;;;10397252;28;20030;-63
2022/03/13 19:39:52;;;;;;;14.15;8.02;;;;;;;;;;10383564;28;20025;-62
2022/03/13 19:44:52;;;;;;;16.52;7.97;;;;;;;;;;10401837;28;20147;-61
2022/03/13 19:49:53;;;;;;;15.25;8.25;;;;;;;;;;10393328;28;20250;-62
2022/03/13 19:54:53;;;;;;;10.40;7.18;;;;;;;;;;10400535;28;20515;-62
2022/03/13 19:59:54;;;;;;;10.73;7.00;;;;;;;;;;10388813;28;20028;-63
2022/03/13 20:04:54;;;;;;;11.03;6.73;;;;;;;;;;10401941;28;20082;-62
2022/03/13 20:09:56;;;;;;;13.13;7.22;;;;;;;;;;10401389;28;20470;-62
2022/03/13 20:14:57;;;;;;;14.82;7.70;;;;;;;;;;10400408;28;20200;-62
2022/03/13 20:19:57;;;;;;;10.97;6.87;;;;;;;;;;10395892;28;20233;-62
2022/03/13 20:24:59;;;;;;;10.87;6.87;;;;;;;;;;10408042;28;20557;-61
2022/03/13 20:29:59;;;;;;;10.52;7.30;;;;;;;;;;10393748;28;20358;-61
2022/03/13 20:35:00;;;;;;;12.02;6.47;;;;;;;;;;10402952;28;20026;-62
2022/03/13 20:40:01;;;;;;;13.00;7.30;;;;;;;;;;10398185;28;20045;-62
2022/03/13 20:45:02;;;;;;;9.98;6.80;;;;;;;;;;10406103;28;20606;-61
2022/03/13 20:50:02;;;;;;;12.50;7.22;;;;;;;;;;10406027;28;20095;-62
2022/03/13 20:55:03;;;;;;;10.00;6.68;;;;;;;;;;10406034;28;20038;-62
2022/03/13 21:00:06;;;;;;;8.25;6.60;;;;;;;;;;10408053;28;20036;-64
2022/03/13 21:05:07;;;;;;;10.88;6.90;;;;;;;;;;10406475;28;20156;-61
2022/03/13 21:10:09;;;;;;;10.95;6.15;;;;;;;;;;10405915;28;20108;-64
2022/03/13 21:15:13;;;;;;;15.35;6.90;;;;;;;;;;10406569;28;20108;-62
2022/03/13 21:20:14;;;;;;;12.13;6.97;;;;;;;;;;10406493;28;20046;-62
2022/03/13 21:25:15;;;;;;;16.50;6.88;;;;;;;;;;10405128;28;20029;-62
2022/03/13 21:30:16;;;;;;;10.55;6.43;;;;;;;;;;10392512;28;20044;-63
2022/03/13 21:35:16;;;;;;;10.48;6.35;;;;;;;;;;10408771;28;20037;-62
2022/03/13 21:40:17;;;;;;;11.15;6.15;;;;;;;;;;10397610;28;20584;-63
2022/03/13 21:45:18;;;;;;;11.07;6.35;;;;;;;;;;10405713;28;20384;-64
2022/03/13 21:50:19;;;;;;;13.95;6.20;;;;;;;;;;10404266;28;20025;-60
2022/03/13 21:55:19;;;;;;;8.65;6.15;;;;;;;;;;10407245;28;20033;-60
2022/03/13 22:00:20;;;;;;;12.35;5.93;;;;;;;;;;10406663;28;20033;-64
2022/03/13 22:05:22;;;;;;;8.35;6.20;;;;;;;;;;10408728;28;20128;-60
2022/03/13 22:10:22;;;;;;;10.02;6.78;;;;;;;;;;10406784;28;20448;-61
2022/03/13 22:15:23;;;;;;;7.53;5.53;;;;;;;;;;10407282;28;20113;-62
2022/03/13 22:20:24;;;;;;;8.93;6.50;;;;;;;;;;10403138;28;20041;-61
2022/03/13 22:25:24;;;;;;;9.50;6.20;;;;;;;;;;10395916;28;20033;-61
2022/03/13 22:30:25;;;;;;;11.27;6.30;;;;;;;;;;10404874;28;20040;-60
2022/03/13 22:35:26;;;;;;;11.20;5.95;;;;;;;;;;10398852;28;20466;-60
2022/03/13 22:40:27;;;;;;;8.50;6.18;;;;;;;;;;10392047;28;20025;-60
2022/03/13 22:45:27;;;;;;;7.00;5.32;;;;;;;;;;10389179;28;20030;-61
2022/03/13 22:51:01;;;;;;;9.50;6.07;;;;;;;;;;10395467;28;20061;-61
2022/03/13 22:55:53;;;;;;;8.82;5.55;;;;;;;;;;10396234;28;20043;-61
2022/03/13 23:00:55;;;;;;;12.60;6.60;;;;;;;;;;10398814;28;20045;-61
2022/03/13 23:05:55;;;;;;;10.02;5.63;;;;;;;;;;10402001;28;20392;-61
2022/03/13 23:10:56;;;;;;;9.27;5.60;;;;;;;;;;10397997;28;20029;-60
2022/03/13 23:15:57;;;;;;;9.07;6.27;;;;;;;;;;10400414;28;20018;-61
2022/03/13 23:20:58;;;;;;;10.85;6.10;;;;;;;;;;10395928;28;20470;-61
2022/03/13 23:25:59;;;;;;;11.00;5.35;;;;;;;;;;10408204;28;20022;-61
2022/03/13 23:31:01;;;;;;;10.98;5.97;;;;;;;;;;10404039;28;20033;-61
2022/03/13 23:36:06;;;;;;;8.73;5.97;;;;;;;;;;10410525;28;20038;-61
2022/03/13 23:41:09;;;;;;;10.23;5.78;;;;;;;;;;10405026;28;20033;-61
2022/03/13 23:46:09;;;;;;;9.43;6.30;;;;;;;;;;10390486;28;20030;-61
2022/03/13 23:51:11;;;;;;;10.75;5.32;;;;;;;;;;10410114;28;20033;-61
2022/03/13 23:56:13;;;;;;;7.68;5.82;;;;;;;;;;10397753;28;20034;-61
